Time;durP1;ratioP1;P1;durP2;ratioP2;P2;SDS_P1;SDS_P2;PMS_P1;PMS_P2;Temp;Humidity;BMP_temperature;BMP_pressure;BME280_temperature;BME280_humidity;BME280_pressure;Samples;Min_cycle;Max_cycle;Signal;HPM_P1;HPM_P2
2023/06/11 00:01:14;;;;;;;12.63;9.77;;;;;;;13.13;100.00;98411.69;2603460;28;20406;-87
2023/06/11 00:02:54;;;;;;;12.65;9.40;;;;;;;13.13;100.00;98418.72;2602139;28;20058;-88
2023/06/11 00:04:12;;;;;;;14.85;10.13;;;;;;;13.11;100.00;98410.03;2604431;28;20068;-87
2023/06/11 00:05:27;;;;;;;11.00;9.10;;;;;;;13.04;100.00;98411.16;2603421;28;20100;-88
2023/06/11 00:06:45;;;;;;;12.20;9.02;;;;;;;12.98;100.00;98414.88;2605734;28;20049;-87
2023/06/11 00:08:00;;;;;;;13.68;9.48;;;;;;;12.83;100.00;98411.94;2602526;28;20540;-88
2023/06/11 00:09:16;;;;;;;10.38;8.85;;;;;;;12.81;100.00;98410.28;2604405;28;20080;-88
2023/06/11 00:10:32;;;;;;;12.05;9.32;;;;;;;12.92;100.00;98413.38;2602816;28;20524;-88
2023/06/11 00:11:47;;;;;;;11.63;8.93;;;;;;;12.75;100.00;98408.75;2602146;28;20049;-86
2023/06/11 00:13:03;;;;;;;12.38;8.80;;;;;;;12.86;100.00;98413.59;2604339;28;20544;-87
2023/06/11 00:14:19;;;;;;;15.82;10.50;;;;;;;12.79;100.00;98410.34;2603087;28;20611;-87
2023/06/11 00:15:35;;;;;;;13.25;9.45;;;;;;;12.79;100.00;98412.97;2604053;28;20120;-87
2023/06/11 00:16:50;;;;;;;13.73;9.95;;;;;;;12.78;100.00;98407.75;2604757;28;20709;-87
2023/06/11 00:18:06;;;;;;;13.00;9.75;;;;;;;12.79;100.00;98410.34;2604052;28;20489;-88
2023/06/11 00:19:22;;;;;;;13.70;9.27;;;;;;;12.83;100.00;98406.66;2603052;28;20046;-87
2023/06/11 00:20:40;;;;;;;13.75;9.98;;;;;;;12.84;100.00;98413.63;2602400;28;20099;-88
2023/06/11 00:21:56;;;;;;;13.25;10.45;;;;;;;12.87;100.00;98409.22;2604647;28;20056;-88
2023/06/11 00:23:12;;;;;;;13.02;10.07;;;;;;;12.70;100.00;98416.78;2603242;28;20056;-87
2023/06/11 00:24:28;;;;;;;20.35;10.32;;;;;;;12.77;100.00;98411.31;2604474;28;20049;-87
2023/06/11 00:25:44;;;;;;;13.10;10.75;;;;;;;12.57;100.00;98416.41;2603738;28;20077;-87
2023/06/11 00:27:01;;;;;;;16.83;10.80;;;;;;;12.40;100.00;98417.00;2603678;28;20417;-87
2023/06/11 00:28:17;;;;;;;14.20;11.05;;;;;;;12.43;100.00;98411.63;2602134;28;20053;-87
2023/06/11 00:29:33;;;;;;;13.43;10.40;;;;;;;12.45;100.00;98416.84;2601398;28;20041;-87
2023/06/11 00:30:48;;;;;;;15.48;11.00;;;;;;;12.36;100.00;98418.03;2603354;28;20099;-87
2023/06/11 00:32:04;;;;;;;14.18;11.35;;;;;;;12.60;100.00;98415.41;2603107;28;20168;-87
2023/06/11 00:33:20;;;;;;;14.18;10.95;;;;;;;12.38;100.00;98415.34;2602809;28;20492;-89
2023/06/11 00:34:35;;;;;;;16.48;11.48;;;;;;;12.58;100.00;98419.88;2602381;28;20049;-87
2023/06/11 00:35:51;;;;;;;13.75;11.02;;;;;;;12.56;100.00;98419.91;2603804;28;20072;-87
2023/06/11 00:37:06;;;;;;;15.05;9.98;;;;;;;12.67;100.00;98416.03;2604034;28;20049;-87
2023/06/11 00:38:23;;;;;;;14.13;9.55;;;;;;;12.56;100.00;98413.81;2598953;28;20084;-87
2023/06/11 00:39:38;;;;;;;13.80;9.65;;;;;;;12.55;100.00;98418.22;2603424;28;20574;-87
2023/06/11 00:40:53;;;;;;;15.40;10.48;;;;;;;12.40;100.00;98414.38;2604094;28;20516;-87
2023/06/11 00:42:10;;;;;;;14.70;10.43;;;;;;;12.43;100.00;98422.16;2603028;28;20049;-87
2023/06/11 00:43:26;;;;;;;13.35;10.23;;;;;;;12.46;100.00;98421.19;2604956;28;20041;-87
2023/06/11 00:44:42;;;;;;;14.15;9.73;;;;;;;12.44;100.00;98420.38;2603690;28;20118;-87
2023/06/11 00:46:02;;;;;;;13.13;9.75;;;;;;;12.32;100.00;98423.44;2602391;28;20049;-88
2023/06/11 00:47:18;;;;;;;16.27;10.65;;;;;;;12.49;100.00;98417.56;2603469;28;20475;-87
2023/06/11 00:48:33;;;;;;;14.00;9.70;;;;;;;12.47;100.00;98420.28;2602935;28;20049;-87
2023/06/11 00:49:49;;;;;;;15.57;10.25;;;;;;;12.49;100.00;98414.94;2604206;28;20045;-87
2023/06/11 00:51:06;;;;;;;16.27;9.88;;;;;;;12.47;100.00;98414.16;2601882;28;20561;-87
2023/06/11 00:52:22;;;;;;;14.38;10.13;;;;;;;12.47;100.00;98415.03;2603048;28;20082;-87
2023/06/11 00:53:37;;;;;;;23.08;10.73;;;;;;;12.49;100.00;98418.44;2603618;28;20055;-87
2023/06/11 00:54:54;;;;;;;13.77;10.77;;;;;;;12.45;100.00;98414.22;2603720;28;20053;-86
2023/06/11 00:56:11;;;;;;;14.43;10.15;;;;;;;12.44;100.00;98417.75;2601029;28;20942;-86
2023/06/11 00:57:27;;;;;;;16.08;10.85;;;;;;;12.47;100.00;98417.66;2602188;28;20412;-86
2023/06/11 00:58:45;;;;;;;16.83;10.88;;;;;;;12.50;100.00;98420.16;2604360;28;20057;-87
2023/06/11 01:00:03;;;;;;;13.00;10.43;;;;;;;12.47;100.00;98417.66;2613578;28;20499;-87
2023/06/11 01:01:29;;;;;;;15.20;10.70;;;;;;;12.39;100.00;98423.16;2610359;28;20052;-87
2023/06/11 01:02:59;;;;;;;13.65;10.10;;;;;;;12.46;100.00;98423.81;2603140;28;20060;-87
2023/06/11 01:04:17;;;;;;;12.60;9.63;;;;;;;12.38;100.00;98418.84;2600662;28;20046;-87
2023/06/11 01:05:42;;;;;;;16.80;11.18;;;;;;;12.33;100.00;98425.16;2602183;28;20146;-87
2023/06/11 01:07:01;;;;;;;12.00;9.82;;;;;;;12.35;100.00;98418.91;2603152;28;20049;-86
2023/06/11 01:08:19;;;;;;;12.65;9.98;;;;;;;12.20;100.00;98427.34;2603646;28;20087;-87
2023/06/11 01:09:36;;;;;;;13.82;10.07;;;;;;;12.13;100.00;98426.69;2604281;28;20076;-86
2023/06/11 01:10:52;;;;;;;12.63;9.82;;;;;;;12.21;100.00;98427.31;2603099;28;20045;-86
2023/06/11 01:12:09;;;;;;;12.77;10.23;;;;;;;12.17;100.00;98422.22;2601795;28;20076;-87
2023/06/11 01:13:25;;;;;;;16.02;11.48;;;;;;;12.21;100.00;98424.69;2602433;28;20094;-86
2023/06/11 01:14:42;;;;;;;12.52;9.93;;;;;;;12.24;100.00;98424.56;2601613;28;20041;-87
2023/06/11 01:16:06;;;;;;;12.38;10.02;;;;;;;12.37;100.00;98425.00;2604432;28;20053;-87
2023/06/11 01:17:40;;;;;;;14.52;10.50;;;;;;;12.12;100.00;98435.47;2603451;28;20111;-86
2023/06/11 01:19:08;;;;;;;13.00;10.68;;;;;;;12.35;100.00;98431.22;2603714;28;20049;-86
2023/06/11 01:20:34;;;;;;;14.70;10.05;;;;;;;12.46;100.00;98422.94;2605289;28;20515;-86
2023/06/11 01:21:56;;;;;;;12.18;9.73;;;;;;;12.43;100.00;98434.41;2602041;28;20040;-87
2023/06/11 01:23:33;;;;;;;13.68;9.85;;;;;;;12.41;100.00;98426.59;2602056;28;20041;-86
2023/06/11 01:25:22;;;;;;;22.13;9.88;;;;;;;12.29;100.00;98433.16;2601547;28;20064;-87
2023/06/11 01:26:49;;;;;;;12.80;9.63;;;;;;;12.26;100.00;98430.59;2604156;28;20409;-87
2023/06/11 01:28:10;;;;;;;19.80;9.63;;;;;;;12.24;100.00;98424.56;2603791;28;20048;-86
2023/06/11 01:29:28;;;;;;;18.02;9.82;;;;;;;12.34;100.00;98429.50;2603252;28;20133;-86
2023/06/11 01:30:52;;;;;;;18.30;10.88;;;;;;;12.36;100.00;98430.28;2603516;28;20134;-86
2023/06/11 01:32:08;;;;;;;35.50;11.50;;;;;;;12.39;100.00;98428.44;2602871;28;20489;-87
2023/06/11 01:33:27;;;;;;;23.67;12.23;;;;;;;12.20;100.00;98432.59;2601979;28;20357;-86
2023/06/11 01:34:42;;;;;;;16.42;10.95;;;;;;;12.20;100.00;98437.84;2600510;28;20640;-87
2023/06/11 01:35:58;;;;;;;26.10;11.25;;;;;;;12.02;100.00;98434.09;2599799;28;20136;-86
2023/06/11 01:37:14;;;;;;;30.10;11.60;;;;;;;12.29;100.00;98434.91;2602466;28;20049;-86
2023/06/11 01:38:34;;;;;;;20.92;11.52;;;;;;;12.26;100.00;98433.22;2602346;28;20063;-86
2023/06/11 01:39:50;;;;;;;16.35;10.85;;;;;;;12.24;100.00;98426.34;2603156;28;20085;-87
2023/06/11 01:41:06;;;;;;;14.00;10.73;;;;;;;12.14;100.00;98434.53;2602925;28;20155;-86
2023/06/11 01:42:21;;;;;;;16.05;11.25;;;;;;;12.31;100.00;98435.69;2603726;28;20080;-86
2023/06/11 01:43:37;;;;;;;19.35;10.65;;;;;;;12.39;100.00;98436.31;2604792;28;20492;-87
2023/06/11 01:44:53;;;;;;;14.77;10.77;;;;;;;12.36;100.00;98438.16;2604753;28;20068;-87
2023/06/11 01:46:08;;;;;;;20.02;11.98;;;;;;;12.43;100.00;98442.28;2602960;28;20049;-86
2023/06/11 01:47:25;;;;;;;20.40;11.85;;;;;;;12.39;100.00;98436.31;2604991;28;20056;-86
2023/06/11 01:48:40;;;;;;;16.77;11.10;;;;;;;12.39;100.00;98435.44;2604574;28;20053;-86
2023/06/11 01:49:56;;;;;;;20.70;11.25;;;;;;;12.43;100.00;98440.53;2606707;28;20049;-86
2023/06/11 01:51:14;;;;;;;25.13;11.07;;;;;;;12.46;100.00;98447.44;2605300;28;20049;-86
2023/06/11 01:52:29;;;;;;;64.75;12.18;;;;;;;12.38;100.00;98442.47;2606262;28;20045;-87
2023/06/11 01:53:45;;;;;;;18.45;10.65;;;;;;;12.25;100.00;98439.41;2606400;28;20111;-86
2023/06/11 01:55:01;;;;;;;17.70;11.25;;;;;;;12.21;100.00;98437.81;2606508;28;20053;-87
2023/06/11 01:56:16;;;;;;;37.13;12.88;;;;;;;12.22;100.00;98443.88;2604059;28;20053;-86
2023/06/11 01:57:33;;;;;;;19.77;10.85;;;;;;;12.19;100.00;98447.50;2606040;28;20727;-86
2023/06/11 01:58:48;;;;;;;71.93;12.48;;;;;;;12.27;100.00;98434.94;2606179;28;20500;-87
2023/06/11 02:00:09;;;;;;;91.40;13.55;;;;;;;12.25;100.00;98442.03;2601024;28;20138;-85
2023/06/11 02:01:28;;;;;;;81.93;11.48;;;;;;;12.28;100.00;98441.06;2604992;28;20115;-87
2023/06/11 02:02:48;;;;;;;85.35;12.23;;;;;;;12.28;100.00;98441.91;2605326;28;20049;-86
2023/06/11 02:04:04;;;;;;;83.20;12.48;;;;;;;12.27;100.00;98442.81;2606572;28;20072;-86
2023/06/11 02:05:19;;;;;;;49.53;11.30;;;;;;;12.27;100.00;98437.56;2605353;28;20212;-87
2023/06/11 02:06:35;;;;;;;110.20;12.80;;;;;;;12.19;100.00;98444.00;2605078;28;20049;-88
2023/06/11 02:07:51;;;;;;;92.97;12.20;;;;;;;12.07;100.00;98443.50;2605294;28;20049;-86
2023/06/11 02:09:06;;;;;;;61.70;10.77;;;;;;;12.04;100.00;98448.03;2605203;28;20053;-87
2023/06/11 02:10:22;;;;;;;50.70;10.25;;;;;;;11.95;100.00;98449.16;2606847;28;20052;-87
2023/06/11 02:11:37;;;;;;;29.33;9.55;;;;;;;12.03;100.00;98441.91;2605089;28;20048;-84
2023/06/11 02:12:53;;;;;;;78.20;11.73;;;;;;;11.96;100.00;98445.63;2606767;28;20454;-86
2023/06/11 02:14:09;;;;;;;37.75;10.25;;;;;;;11.95;100.00;98442.13;2606951;28;20095;-88
2023/06/11 02:15:25;;;;;;;29.55;10.25;;;;;;;11.88;100.00;98448.50;2604898;28;20052;-86
2023/06/11 02:16:41;;;;;;;20.67;10.10;;;;;;;11.95;100.00;98441.28;2605420;28;20064;-86
2023/06/11 02:17:56;;;;;;;70.93;11.85;;;;;;;11.97;100.00;98442.09;2605491;28;20072;-87
2023/06/11 02:19:12;;;;;;;195.82;14.63;;;;;;;11.99;100.00;98435.88;2606581;28;20049;-86
2023/06/11 02:20:28;;;;;;;138.23;14.80;;;;;;;12.20;100.00;98440.47;2604838;28;20072;-87
2023/06/11 02:21:43;;;;;;;41.28;11.10;;;;;;;12.20;100.00;98448.34;2607024;28;20048;-87
2023/06/11 02:22:59;;;;;;;194.13;15.13;;;;;;;12.22;100.00;98439.50;2604840;28;20046;-87
2023/06/11 02:24:15;;;;;;;117.72;13.25;;;;;;;12.25;100.00;98436.78;2606640;28;20405;-88
2023/06/11 02:25:30;;;;;;;109.85;12.77;;;;;;;12.24;100.00;98442.94;2605343;28;20048;-86
2023/06/11 02:26:46;;;;;;;106.63;13.00;;;;;;;12.12;100.00;98443.34;2608118;28;20046;-86
2023/06/11 02:28:05;;;;;;;31.67;10.32;;;;;;;11.97;100.00;98447.34;2610583;28;20065;-87
2023/06/11 02:29:20;;;;;;;25.17;10.35;;;;;;;11.77;100.00;98446.22;2615123;28;20094;-85
2023/06/11 02:30:36;;;;;;;116.53;12.77;;;;;;;11.96;100.00;98443.84;2611555;28;20107;-85
2023/06/11 02:31:51;;;;;;;38.22;10.40;;;;;;;11.99;100.00;98442.91;2610136;28;20100;-86
2023/06/11 02:33:07;;;;;;;23.85;10.57;;;;;;;11.97;100.00;98442.09;2607856;28;20046;-85
2023/06/11 02:34:22;;;;;;;63.10;11.60;;;;;;;12.05;100.00;98439.25;2610528;28;20049;-85
2023/06/11 02:35:38;;;;;;;56.20;11.57;;;;;;;12.13;100.00;98450.31;2614427;28;20055;-86
2023/06/11 02:36:54;;;;;;;67.18;12.07;;;;;;;12.06;100.00;98441.78;2612900;28;20065;-87
2023/06/11 02:38:10;;;;;;;62.60;11.45;;;;;;;12.15;100.00;98448.50;2607951;28;20049;-86
2023/06/11 02:39:25;;;;;;;33.47;10.52;;;;;;;12.09;100.00;98443.47;2613029;28;20041;-86
2023/06/11 02:40:41;;;;;;;42.75;11.88;;;;;;;12.20;100.00;98446.59;2612126;28;20041;-85
2023/06/11 02:41:56;;;;;;;29.27;10.25;;;;;;;12.09;100.00;98454.84;2613281;28;20047;-86
2023/06/11 02:43:13;;;;;;;54.80;11.10;;;;;;;12.26;100.00;98454.22;2614498;28;20049;-85
2023/06/11 02:44:28;;;;;;;49.45;10.23;;;;;;;12.20;100.00;98451.84;2612826;28;20045;-87
2023/06/11 02:45:44;;;;;;;50.22;10.35;;;;;;;12.05;100.00;98455.00;2613764;28;20044;-85
2023/06/11 02:47:00;;;;;;;39.28;9.32;;;;;;;11.92;100.00;98454.50;2615398;28;20060;-87
2023/06/11 02:48:15;;;;;;;25.42;9.25;;;;;;;12.02;100.00;98450.69;2612328;28;20049;-85
2023/06/11 02:49:31;;;;;;;28.67;9.95;;;;;;;11.91;100.00;98460.66;2612398;28;20045;-88
2023/06/11 02:50:46;;;;;;;25.90;9.57;;;;;;;11.68;100.00;98457.88;2612490;28;20057;-86
2023/06/11 02:52:02;;;;;;;14.63;9.13;;;;;;;11.66;100.00;98454.44;2613837;28;20045;-85
2023/06/11 02:53:17;;;;;;;23.77;10.18;;;;;;;11.58;100.00;98461.69;2612598;28;20049;-86
2023/06/11 02:54:33;;;;;;;16.27;10.32;;;;;;;11.62;100.00;98457.22;2613073;28;20061;-85
2023/06/11 02:55:49;;;;;;;24.75;10.23;;;;;;;11.76;100.00;98457.63;2611826;28;20052;-84
2023/06/11 02:57:05;;;;;;;23.48;9.95;;;;;;;11.41;100.00;98463.09;2611888;28;20049;-86
2023/06/11 02:58:21;;;;;;;21.60;10.65;;;;;;;11.71;100.00;98463.00;2608897;28;20079;-85
2023/06/11 02:59:36;;;;;;;28.17;10.85;;;;;;;11.83;100.00;98464.41;2612408;28;20049;-90
2023/06/11 03:00:51;;;;;;;20.13;10.38;;;;;;;11.90;100.00;98475.56;2615161;28;20053;-86
2023/06/11 03:02:07;;;;;;;24.42;10.70;;;;;;;11.83;100.00;98468.78;2615247;28;20132;-86
2023/06/11 03:03:23;;;;;;;18.65;9.80;;;;;;;11.83;100.00;98476.66;2604955;28;20455;-88
2023/06/11 03:04:38;;;;;;;16.58;9.73;;;;;;;11.98;100.00;98480.53;2606477;28;20049;-86
2023/06/11 03:05:54;;;;;;;20.30;9.75;;;;;;;12.09;100.00;98477.59;2607932;28;20413;-87
2023/06/11 03:07:09;;;;;;;16.65;9.30;;;;;;;12.14;100.00;98483.53;2608986;28;20071;-86
2023/06/11 03:08:25;;;;;;;12.85;8.35;;;;;;;12.07;100.00;98476.78;2602836;28;20057;-86
2023/06/11 03:09:40;;;;;;;11.57;8.73;;;;;;;12.03;100.00;98477.81;2608264;28;21094;-86
2023/06/11 03:10:56;;;;;;;11.00;9.13;;;;;;;12.03;100.00;98476.03;2607525;28;20076;-86
2023/06/11 03:12:12;;;;;;;11.95;8.68;;;;;;;11.74;100.00;98477.81;2606891;28;20052;-87
2023/06/11 03:13:28;;;;;;;10.13;8.52;;;;;;;11.91;100.00;98479.00;2605715;28;20041;-87
2023/06/11 03:14:43;;;;;;;22.10;9.13;;;;;;;11.92;100.00;98481.59;2607202;28;20140;-86
2023/06/11 03:15:59;;;;;;;13.57;8.10;;;;;;;11.66;100.00;98474.56;2606298;28;20112;-86
2023/06/11 03:17:14;;;;;;;35.38;10.55;;;;;;;11.91;100.00;98473.75;2604738;28;20064;-87
2023/06/11 03:18:30;;;;;;;26.90;9.27;;;;;;;11.87;100.00;98473.00;2606747;28;20053;-87
2023/06/11 03:19:46;;;;;;;40.65;9.70;;;;;;;11.78;100.00;98474.16;2605948;28;20048;-87
2023/06/11 03:21:01;;;;;;;63.35;10.95;;;;;;;11.83;100.00;98477.50;2605049;28;20520;-86
2023/06/11 03:22:17;;;;;;;31.02;10.27;;;;;;;11.86;100.00;98479.16;2606682;28;20489;-86
2023/06/11 03:23:33;;;;;;;15.43;9.80;;;;;;;11.99;100.00;98483.09;2605196;28;20492;-86
2023/06/11 03:24:49;;;;;;;124.38;13.25;;;;;;;12.07;100.00;98482.88;2605884;28;20052;-86
2023/06/11 03:26:04;;;;;;;94.75;11.90;;;;;;;12.05;100.00;98476.81;2604607;28;20091;-86
2023/06/11 03:27:20;;;;;;;62.90;11.65;;;;;;;12.07;100.00;98482.03;2605832;28;20071;-87
2023/06/11 03:28:35;;;;;;;16.50;9.93;;;;;;;12.20;100.00;98479.84;2606351;28;20052;-87
2023/06/11 03:29:51;;;;;;;32.53;10.13;;;;;;;12.21;100.00;98481.56;2603686;28;20048;-87
2023/06/11 03:31:06;;;;;;;30.90;10.18;;;;;;;12.32;100.00;98483.81;2603802;28;20049;-87
2023/06/11 03:32:22;;;;;;;23.60;10.05;;;;;;;12.39;100.00;98483.56;2607156;28;20242;-86
2023/06/11 03:33:38;;;;;;;44.58;10.95;;;;;;;12.35;100.00;98487.19;2605496;28;20503;-87
2023/06/11 03:34:53;;;;;;;39.05;10.68;;;;;;;12.40;100.00;98493.16;2605658;28;20072;-87
2023/06/11 03:36:10;;;;;;;21.33;9.73;;;;;;;12.49;100.00;98491.97;2605848;28;20053;-86
2023/06/11 03:37:25;;;;;;;27.27;10.32;;;;;;;12.47;100.00;98488.53;2604854;28;20550;-86
2023/06/11 03:38:41;;;;;;;19.05;9.40;;;;;;;12.55;100.00;98480.41;2604828;28;20037;-86
2023/06/11 03:39:57;;;;;;;35.72;9.88;;;;;;;12.39;100.00;98483.56;2604615;28;20109;-86
2023/06/11 03:41:12;;;;;;;17.25;9.38;;;;;;;12.11;100.00;98492.38;2604813;28;20053;-85
2023/06/11 03:42:29;;;;;;;22.35;9.57;;;;;;;12.13;100.00;98490.56;2604347;28;20060;-86
2023/06/11 03:43:45;;;;;;;30.17;9.63;;;;;;;12.24;100.00;98491.97;2605604;28;20045;-89
2023/06/11 03:45:00;;;;;;;35.03;10.40;;;;;;;12.29;100.00;98490.91;2604087;28;20155;-86
2023/06/11 03:46:17;;;;;;;78.00;11.55;;;;;;;12.28;100.00;98481.28;2605506;28;20041;-86
2023/06/11 03:47:32;;;;;;;64.40;11.10;;;;;;;12.15;100.00;98478.22;2604760;28;20614;-85
2023/06/11 03:48:48;;;;;;;60.88;11.05;;;;;;;12.37;100.00;98484.50;2605660;28;20099;-85
2023/06/11 03:50:04;;;;;;;70.43;12.55;;;;;;;12.46;100.00;98486.84;2606464;28;20696;-89
2023/06/11 03:51:20;;;;;;;106.60;12.10;;;;;;;12.45;100.00;98490.38;2603974;28;20076;-85
2023/06/11 03:52:36;;;;;;;210.88;16.00;;;;;;;12.51;100.00;98494.56;2603945;28;20578;-86
2023/06/11 03:53:52;;;;;;;164.52;14.23;;;;;;;12.50;100.00;98498.06;2606307;28;20056;-86
2023/06/11 03:55:08;;;;;;;163.55;15.55;;;;;;;12.48;100.00;98492.00;2603798;28;20052;-86
2023/06/11 03:56:23;;;;;;;94.15;11.55;;;;;;;12.31;100.00;98493.47;2604054;28;20049;-86
2023/06/11 03:57:40;;;;;;;201.65;16.55;;;;;;;12.35;100.00;98499.47;2606075;28;20044;-86
2023/06/11 03:58:55;;;;;;;194.75;17.20;;;;;;;12.43;100.00;98500.91;2604026;28;20071;-86
2023/06/11 04:00:11;;;;;;;177.85;15.23;;;;;;;12.41;100.00;98504.50;2603413;28;20041;-86
2023/06/11 04:01:27;;;;;;;153.25;13.18;;;;;;;12.32;100.00;98504.84;2605930;28;20052;-87
2023/06/11 04:02:43;;;;;;;151.15;12.07;;;;;;;12.54;100.00;98502.31;2605081;28;20064;-86
2023/06/11 04:03:58;;;;;;;229.43;18.38;;;;;;;12.43;100.00;98507.91;2602858;28;20049;-86
2023/06/11 04:05:14;;;;;;;237.27;18.15;;;;;;;12.45;100.00;98507.88;2604379;28;20558;-86
2023/06/11 04:06:38;;;;;;;157.20;15.10;;;;;;;12.45;100.00;98511.38;2601854;28;20547;-87
2023/06/11 04:07:54;;;;;;;75.95;13.27;;;;;;;12.45;100.00;98508.75;2604455;28;20054;-86
2023/06/11 04:09:10;;;;;;;135.35;16.10;;;;;;;12.42;100.00;98514.09;2614739;28;20626;-86
2023/06/11 04:10:25;;;;;;;118.78;15.63;;;;;;;12.33;100.00;98519.66;2609614;28;20057;-86
2023/06/11 04:11:41;;;;;;;199.38;16.35;;;;;;;12.52;100.00;98512.03;2603886;28;20048;-86
2023/06/11 04:12:57;;;;;;;94.53;12.35;;;;;;;12.53;100.00;98517.19;2605216;28;20041;-86
2023/06/11 04:14:12;;;;;;;134.88;14.82;;;;;;;12.52;100.00;98519.91;2603778;28;20283;-87
2023/06/11 04:15:29;;;;;;;81.63;11.38;;;;;;;12.43;100.00;98516.66;2586541;28;20049;-86
2023/06/11 04:16:45;;;;;;;106.95;13.75;;;;;;;12.48;100.00;98518.28;2597916;28;20089;-86
2023/06/11 04:18:01;;;;;;;122.45;12.70;;;;;;;12.50;100.00;98519.06;2602934;28;20433;-86
2023/06/11 04:19:18;;;;;;;63.20;10.68;;;;;;;12.54;100.00;98513.66;2605878;28;20076;-86
2023/06/11 04:20:33;;;;;;;53.35;9.73;;;;;;;12.64;100.00;98513.34;2605282;28;20056;-87
2023/06/11 04:21:49;;;;;;;79.47;10.68;;;;;;;12.73;100.00;98517.41;2603332;28;20061;-87
2023/06/11 04:23:04;;;;;;;86.30;11.13;;;;;;;12.51;100.00;98519.03;2602132;28;20048;-87
2023/06/11 04:24:20;;;;;;;50.00;10.55;;;;;;;12.64;100.00;98516.84;2604894;28;20049;-86
2023/06/11 04:25:39;;;;;;;66.18;10.43;;;;;;;12.56;100.00;98516.25;2614069;28;20040;-86
2023/06/11 04:26:56;;;;;;;40.88;8.98;;;;;;;12.57;100.00;98520.59;2607748;28;20041;-87
2023/06/11 04:28:15;;;;;;;48.63;10.45;;;;;;;12.48;100.00;98529.66;2605445;28;20047;-88
2023/06/11 04:29:31;;;;;;;65.07;9.93;;;;;;;12.51;100.00;98520.81;2604126;28;20040;-86
2023/06/11 04:30:48;;;;;;;24.40;9.25;;;;;;;12.58;100.00;98522.31;2604517;28;20045;-86
2023/06/11 04:32:04;;;;;;;27.42;9.52;;;;;;;12.60;100.00;98524.88;2603307;28;20131;-86
2023/06/11 04:33:21;;;;;;;30.55;9.80;;;;;;;12.63;100.00;98532.66;2604250;28;20044;-86
2023/06/11 04:34:37;;;;;;;36.78;9.77;;;;;;;12.62;100.00;98531.78;2597676;28;20048;-87
2023/06/11 04:35:53;;;;;;;34.75;9.95;;;;;;;12.68;100.00;98526.31;2600041;28;20049;-86
2023/06/11 04:37:09;;;;;;;37.67;10.05;;;;;;;12.77;100.00;98526.91;2603621;28;20500;-86
2023/06/11 04:38:28;;;;;;;19.48;9.45;;;;;;;12.76;100.00;98531.31;2603037;28;20068;-87
2023/06/11 04:39:43;;;;;;;30.38;9.73;;;;;;;12.85;100.00;98536.25;2608503;28;20044;-86
2023/06/11 04:41:00;;;;;;;34.20;10.18;;;;;;;12.83;100.00;98519.66;2610365;28;20041;-86
2023/06/11 04:42:16;;;;;;;63.08;10.82;;;;;;;12.65;100.00;98528.19;2603292;28;20149;-87
2023/06/11 04:43:36;;;;;;;25.17;9.68;;;;;;;12.83;100.00;98519.66;2604021;28;20044;-85
2023/06/11 04:44:52;;;;;;;70.05;11.35;;;;;;;12.81;100.00;98523.25;2602948;28;20705;-86
2023/06/11 04:46:09;;;;;;;40.45;11.18;;;;;;;12.74;100.00;98529.63;2603510;28;20041;-86
2023/06/11 04:47:24;;;;;;;28.75;10.35;;;;;;;12.61;100.00;98532.69;2602857;28;20091;-87
2023/06/11 04:48:40;;;;;;;55.85;10.45;;;;;;;12.84;100.00;98529.25;2603304;28;20090;-86
2023/06/11 04:50:01;;;;;;;37.08;10.77;;;;;;;13.03;100.00;98525.97;2604502;28;20049;-86
2023/06/11 04:51:20;;;;;;;21.92;9.20;;;;;;;12.64;100.00;98523.84;2603964;28;20045;-86
2023/06/11 04:52:38;;;;;;;20.95;9.52;;;;;;;12.51;100.00;98521.66;2602576;28;20481;-86
2023/06/11 04:53:57;;;;;;;38.67;11.13;;;;;;;12.88;100.00;98521.28;2602392;28;20075;-87
2023/06/11 04:55:13;;;;;;;26.48;9.95;;;;;;;12.68;100.00;98522.81;2604467;28;20535;-86
2023/06/11 04:56:28;;;;;;;43.80;11.13;;;;;;;12.91;100.00;98518.53;2602786;28;20034;-86
2023/06/11 04:57:45;;;;;;;38.30;10.10;;;;;;;12.79;100.00;98523.31;2602993;28;20489;-85
2023/06/11 04:59:01;;;;;;;48.28;11.32;;;;;;;12.83;100.00;98527.53;2599875;28;20057;-86
2023/06/11 05:00:17;;;;;;;79.45;12.63;;;;;;;12.88;100.00;98526.53;2603040;28;20184;-86
2023/06/11 05:01:33;;;;;;;132.60;13.90;;;;;;;12.93;100.00;98524.59;2604951;28;20084;-86
2023/06/11 05:02:49;;;;;;;75.05;12.43;;;;;;;12.96;100.00;98522.72;2603105;28;20513;-86
2023/06/11 05:04:05;;;;;;;67.07;12.35;;;;;;;13.06;100.00;98519.72;2602741;28;20053;-86
2023/06/11 05:05:20;;;;;;;27.80;10.25;;;;;;;12.93;100.00;98527.22;2604915;28;20772;-86
2023/06/11 05:06:36;;;;;;;21.65;11.13;;;;;;;13.08;100.00;98521.38;2602831;28;20084;-86
2023/06/11 05:07:52;;;;;;;30.45;11.30;;;;;;;13.35;100.00;98531.78;2603632;28;20052;-86
2023/06/11 05:09:08;;;;;;;22.02;11.07;;;;;;;13.35;100.00;98529.16;2602495;28;20103;-87
2023/06/11 05:10:23;;;;;;;29.23;11.95;;;;;;;13.30;100.00;98525.84;2598169;28;20061;-86
2023/06/11 05:11:42;;;;;;;32.95;11.13;;;;;;;13.44;100.00;98527.13;2601284;28;20492;-86
2023/06/11 05:12:57;;;;;;;50.17;11.70;;;;;;;13.41;100.00;98523.69;2602072;28;20049;-87
2023/06/11 05:14:13;;;;;;;21.42;11.30;;;;;;;13.48;100.00;98533.97;2604181;28;20574;-87
2023/06/11 05:15:29;;;;;;;32.17;12.07;;;;;;;13.46;100.00;98528.78;2604926;28;20107;-86
2023/06/11 05:16:45;;;;;;;15.73;10.52;;;;;;;13.51;100.00;98533.84;2604101;28;20504;-86
2023/06/11 05:18:01;;;;;;;14.93;9.73;;;;;;;13.51;100.00;98529.47;2604046;28;20083;-87
2023/06/11 05:19:16;;;;;;;13.90;9.32;;;;;;;13.52;100.00;98530.31;2601984;28;20461;-86
2023/06/11 05:20:32;;;;;;;16.42;10.63;;;;;;;13.70;100.00;98531.38;2603075;28;20084;-86
2023/06/11 05:21:47;;;;;;;12.80;10.00;;;;;;;13.69;100.00;98529.66;2598428;28;20042;-86
2023/06/11 05:23:03;;;;;;;12.68;10.00;;;;;;;13.66;100.00;98535.88;2602405;28;20509;-87
2023/06/11 05:24:20;;;;;;;12.82;9.70;;;;;;;13.61;100.00;98539.63;2603207;28;20053;-86
2023/06/11 05:25:35;;;;;;;14.90;10.07;;;;;;;13.46;100.00;98533.19;2603095;28;20543;-86
2023/06/11 05:26:54;;;;;;;13.45;9.90;;;;;;;13.55;100.00;98531.06;2605109;28;20630;-85
2023/06/11 05:28:10;;;;;;;12.70;10.07;;;;;;;13.62;100.00;98530.81;2603562;28;20057;-86
2023/06/11 05:29:26;;;;;;;12.93;9.88;;;;;;;13.70;100.00;98534.88;2603096;28;20037;-85
2023/06/11 05:30:45;;;;;;;12.90;8.77;;;;;;;13.89;100.00;98534.13;2604245;28;20103;-88
2023/06/11 05:32:02;;;;;;;11.25;9.25;;;;;;;13.97;100.00;98528.56;2601175;28;20148;-92
2023/06/11 05:33:17;;;;;;;10.80;8.98;;;;;;;14.04;100.00;98529.16;2601404;28;20088;-85
2023/06/11 05:34:34;;;;;;;13.20;9.52;;;;;;;14.07;100.00;98539.56;2602838;28;20069;-85
2023/06/11 05:35:51;;;;;;;11.82;9.70;;;;;;;13.94;100.00;98533.97;2603049;28;20420;-86
2023/06/11 05:37:07;;;;;;;13.18;9.98;;;;;;;14.16;100.00;98540.97;2602277;28;20132;-85
2023/06/11 05:38:24;;;;;;;12.55;9.85;;;;;;;14.22;100.00;98540.72;2605115;28;20148;-85
2023/06/11 05:39:39;;;;;;;13.85;9.23;;;;;;;14.36;100.00;98534.88;2603706;28;20771;-85
2023/06/11 05:40:55;;;;;;;12.68;9.63;;;;;;;14.50;100.00;98542.19;2602763;28;20053;-85
2023/06/11 05:42:11;;;;;;;14.52;10.05;;;;;;;14.46;100.00;98537.97;2604025;28;20136;-85
2023/06/11 05:43:26;;;;;;;15.02;9.88;;;;;;;14.53;100.00;98539.44;2602213;28;20041;-85
2023/06/11 05:44:42;;;;;;;17.58;10.02;;;;;;;14.49;100.00;98536.06;2603999;28;20559;-86
2023/06/11 05:45:58;;;;;;;13.38;9.73;;;;;;;14.50;100.00;98537.78;2603137;28;20640;-85
2023/06/11 05:47:14;;;;;;;11.73;9.65;;;;;;;14.62;100.00;98538.19;2603580;28;20053;-85
2023/06/11 05:48:30;;;;;;;13.25;9.55;;;;;;;14.48;100.00;98531.72;2602624;28;20558;-85
2023/06/11 05:49:46;;;;;;;13.48;9.95;;;;;;;14.62;100.00;98538.19;2604117;28;20055;-85
2023/06/11 05:51:01;;;;;;;18.00;11.30;;;;;;;14.93;100.00;98543.00;2601686;28;20041;-87